createdAt,value
2019-01-27T00:05:54.207Z,4.50
2019-01-27T00:09:18.989Z,4.40
2019-01-27T00:12:19.140Z,4.50
2019-01-27T00:16:15.614Z,4.50
2019-01-27T00:26:22.307Z,4.50
2019-01-27T00:29:25.010Z,4.50
2019-01-27T00:40:51.490Z,4.50
2019-01-27T00:43:53.317Z,4.50
2019-01-27T00:47:09.185Z,4.50
2019-01-27T00:53:14.145Z,4.50
2019-01-27T00:56:13.732Z,4.50
2019-01-27T01:09:15.346Z,4.50
2019-01-27T01:12:19.807Z,4.60
2019-01-27T01:15:18.616Z,4.50
2019-01-27T01:28:48.882Z,4.60
2019-01-27T01:32:17.141Z,4.60
2019-01-27T01:38:24.737Z,4.50
2019-01-27T01:40:54.764Z,4.50
2019-01-27T01:43:24.125Z,4.50
2019-01-27T01:45:53.778Z,4.50
2019-01-27T01:48:25.936Z,4.50
2019-01-27T01:50:55.601Z,4.50
2019-01-27T01:57:15.058Z,4.50
2019-01-27T01:59:52.165Z,4.50
2019-01-27T02:02:26.695Z,4.50
2019-01-27T02:05:02.225Z,4.50
2019-01-27T02:07:42.655Z,4.50
2019-01-27T02:10:23.082Z,4.50
2019-01-27T02:12:55.087Z,4.60
2019-01-27T02:16:16.452Z,4.60
2019-01-27T02:18:53.118Z,4.50
2019-01-27T02:21:25.732Z,4.60
2019-01-27T02:24:17.110Z,4.50
2019-01-27T02:26:49.128Z,4.60
2019-01-27T02:29:18.368Z,4.60
2019-01-27T02:32:05.338Z,4.60
2019-01-27T02:37:15.256Z,4.50
2019-01-27T02:39:48.199Z,4.50
2019-01-27T02:42:17.712Z,4.50
2019-01-27T02:48:38.972Z,4.50
2019-01-27T02:51:08.799Z,4.50
2019-01-27T02:53:41.588Z,4.50
2019-01-27T02:56:14.867Z,4.50
2019-01-27T02:58:53.763Z,4.50
2019-01-27T03:01:36.754Z,4.50
2019-01-27T03:04:09.498Z,4.50
2019-01-27T03:07:12.969Z,4.50
2019-01-27T03:09:44.603Z,4.50
2019-01-27T03:12:19.975Z,4.50
2019-01-27T03:14:52.690Z,4.50
2019-01-27T03:21:13.273Z,4.50
2019-01-27T03:23:44.112Z,4.50
2019-01-27T03:26:16.989Z,4.50
2019-01-27T03:28:55.182Z,4.50
2019-01-27T03:31:42.598Z,4.50
2019-01-27T03:34:14.103Z,4.50
2019-01-27T03:36:47.683Z,4.50
2019-01-27T03:39:20.248Z,4.50
2019-01-27T03:45:36.558Z,4.50
2019-01-27T03:48:10.064Z,4.50
2019-01-27T03:50:39.816Z,4.50
2019-01-27T03:53:09.564Z,4.50
2019-01-27T03:55:47.191Z,4.50
2019-01-27T03:58:16.721Z,4.50
2019-01-27T04:00:46.202Z,4.50
2019-01-27T04:03:30.032Z,4.50
2019-01-27T04:06:08.253Z,4.50
2019-01-27T04:08:39.211Z,4.50
2019-01-27T04:11:13.871Z,4.50
2019-01-27T04:13:45.138Z,4.50
2019-01-27T04:16:16.038Z,4.50
2019-01-27T04:18:45.605Z,4.50
2019-01-27T04:21:19.599Z,4.50
2019-01-27T04:23:50.119Z,4.50
2019-01-27T04:30:01.568Z,4.50
2019-01-27T04:32:37.590Z,4.50
2019-01-27T04:35:10.519Z,4.50
2019-01-27T04:37:40.901Z,4.50
2019-01-27T04:40:20.166Z,4.50
2019-01-27T04:42:49.669Z,4.50
2019-01-27T04:45:30.846Z,4.50
2019-01-27T04:48:42.724Z,4.50
2019-01-27T04:51:16.860Z,4.50
2019-01-27T04:53:48.026Z,4.50
2019-01-27T04:56:17.452Z,4.50
2019-01-27T04:58:48.654Z,4.50
2019-01-27T05:01:25.297Z,4.50
2019-01-27T05:04:11.104Z,4.50
2019-01-27T05:06:44.539Z,4.50
2019-01-27T05:32:37.912Z,4.50
2019-01-27T05:41:40.717Z,4.50
2019-01-27T05:44:53.569Z,4.50
2019-01-27T06:23:03.489Z,4.60
2019-01-27T06:25:51.205Z,4.60
2019-01-27T06:39:01.582Z,4.60
2019-01-27T06:51:45.945Z,4.60
2019-01-27T06:54:49.817Z,4.60
2019-01-27T06:57:22.495Z,4.60
2019-01-27T07:00:41.240Z,4.60
2019-01-27T07:03:41.619Z,4.60
2019-01-27T07:06:35.605Z,4.60
2019-01-27T07:09:50.532Z,4.60
2019-01-27T07:12:43.188Z,4.60
2019-01-27T07:15:55.029Z,4.60
2019-01-27T07:18:53.376Z,4.60
2019-01-27T07:21:28.479Z,4.60
2019-01-27T07:24:18.495Z,4.60
2019-01-27T07:27:18.701Z,4.60
2019-01-27T07:30:16.350Z,4.60
2019-01-27T07:36:37.163Z,4.60
2019-01-27T07:39:41.025Z,4.70
2019-01-27T07:42:41.074Z,4.70
2019-01-27T07:45:31.649Z,4.70
2019-01-27T07:48:15.770Z,4.70
2019-01-27T07:50:59.511Z,4.70
2019-01-27T07:53:46.710Z,4.70
2019-01-27T07:56:53.275Z,4.70
2019-01-27T07:59:42.366Z,4.70
2019-01-27T08:02:16.559Z,4.80
2019-01-27T08:05:07.934Z,4.80
2019-01-27T08:08:08.817Z,4.80
2019-01-27T08:10:59.779Z,4.80
2019-01-27T08:13:49.226Z,4.80
2019-01-27T08:16:36.310Z,4.80
2019-01-27T08:19:23.539Z,4.80
2019-01-27T08:22:20.749Z,4.90
2019-01-27T08:24:59.184Z,4.90
2019-01-27T08:27:54.650Z,4.90
2019-01-27T08:30:52.361Z,4.90
2019-01-27T08:33:37.758Z,4.90
2019-01-27T08:36:24.467Z,4.90
2019-01-27T08:39:21.961Z,4.90
2019-01-27T08:42:19.200Z,4.90
2019-01-27T08:45:10.396Z,4.90
2019-01-27T08:47:39.357Z,5.00
2019-01-27T08:50:12.572Z,5.00
2019-01-27T08:52:41.628Z,5.00
2019-01-27T08:55:12.544Z,5.00
2019-01-27T08:57:41.756Z,5.00
2019-01-27T09:00:14.589Z,5.00
2019-01-27T09:03:04.085Z,5.10
2019-01-27T09:05:52.301Z,5.10
2019-01-27T09:08:26.281Z,5.10
2019-01-27T09:11:24.649Z,5.20
2019-01-27T09:14:17.192Z,5.20
2019-01-27T09:17:32.720Z,5.20
2019-01-27T09:20:10.779Z,5.20
2019-01-27T09:23:00.962Z,5.20
2019-01-27T09:25:38.437Z,5.30
2019-01-27T09:28:26.886Z,5.30
2019-01-27T09:34:43.437Z,5.40
2019-01-27T09:37:58.657Z,5.50
2019-01-27T09:48:18.198Z,5.50
2019-01-27T09:51:05.064Z,5.50
2019-01-27T09:53:44.182Z,5.50
2019-01-27T09:56:32.572Z,5.50
2019-01-27T09:59:19.971Z,5.50
2019-01-27T10:02:18.667Z,5.50
2019-01-27T10:04:55.959Z,5.50
2019-01-27T10:07:40.856Z,5.50
2019-01-27T10:11:06.076Z,5.50
2019-01-27T10:14:13.812Z,5.60
2019-01-27T10:17:17.129Z,5.60
2019-01-27T10:23:26.382Z,5.60
2019-01-27T10:26:14.925Z,5.60
2019-01-27T10:29:07.654Z,5.60
2019-01-27T10:31:46.994Z,5.60
2019-01-27T10:34:32.765Z,5.50
2019-01-27T10:37:19.014Z,5.50
2019-01-27T10:40:09.273Z,5.50
2019-01-27T10:45:52.766Z,5.50
2019-01-27T10:48:54.871Z,5.50
2019-01-27T10:51:49.123Z,5.50
2019-01-27T10:54:37.844Z,5.50
2019-01-27T10:57:13.646Z,5.50
2019-01-27T11:00:05.167Z,5.50
2019-01-27T11:02:45.665Z,5.50
2019-01-27T11:05:33.280Z,5.50
2019-01-27T11:08:21.649Z,5.50
2019-01-27T11:11:15.610Z,5.50
2019-01-27T11:14:10.176Z,5.50
2019-01-27T11:20:31.464Z,5.50
2019-01-27T11:23:21.312Z,5.50
2019-01-27T11:26:49.335Z,5.50
2019-01-27T11:29:28.945Z,5.50
2019-01-27T11:32:42.760Z,5.50
2019-01-27T11:35:37.397Z,5.50
2019-01-27T11:38:24.758Z,5.50
2019-01-27T11:41:10.936Z,5.50
2019-01-27T11:43:54.203Z,5.50
2019-01-27T11:46:53.766Z,5.50
2019-01-27T11:49:45.448Z,5.50
2019-01-27T11:52:21.804Z,5.50
2019-01-27T11:57:26.424Z,5.50
2019-01-27T12:02:46.702Z,5.60
2019-01-27T12:05:15.478Z,5.60
2019-01-27T12:07:44.850Z,5.60
2019-01-27T12:10:16.479Z,5.60
2019-01-27T12:12:45.969Z,5.60
2019-01-27T12:15:21.460Z,5.60
2019-01-27T12:17:50.526Z,5.60
2019-01-27T12:20:19.709Z,5.60
2019-01-27T12:22:52.725Z,5.60
2019-01-27T12:25:22.071Z,5.60
2019-01-27T12:27:51.666Z,5.60
2019-01-27T12:30:21.272Z,5.60
2019-01-27T12:32:53.487Z,5.60
2019-01-27T12:35:23.014Z,5.60
2019-01-27T12:37:52.520Z,5.60
2019-01-27T12:40:23.206Z,5.60
2019-01-27T12:42:52.460Z,5.60
2019-01-27T12:45:21.647Z,5.60
2019-01-27T12:47:50.952Z,5.60
2019-01-27T12:50:20.381Z,5.60
2019-01-27T12:52:51.232Z,5.60
2019-01-27T12:55:20.723Z,5.60
2019-01-27T12:57:51.681Z,5.60
2019-01-27T13:00:31.643Z,5.60
2019-01-27T13:03:01.212Z,5.60
2019-01-27T13:05:30.811Z,5.60
2019-01-27T13:08:00.112Z,5.60
2019-01-27T13:10:29.481Z,5.60
2019-01-27T13:12:58.920Z,5.60
2019-01-27T13:15:28.572Z,5.60
2019-01-27T13:17:58.108Z,5.60
2019-01-27T13:20:27.808Z,5.60
2019-01-27T13:22:57.208Z,5.60
2019-01-27T13:25:26.782Z,5.60
2019-01-27T13:27:56.331Z,5.60
2019-01-27T13:30:25.814Z,5.70
2019-01-27T13:32:55.844Z,5.70
2019-01-27T13:35:25.277Z,5.70
2019-01-27T13:37:55.025Z,5.70
2019-01-27T13:40:26.985Z,5.70
2019-01-27T13:43:06.036Z,5.70
2019-01-27T13:45:57.642Z,5.70
2019-01-27T13:48:34.568Z,5.80
2019-01-27T13:57:38.738Z,5.80
2019-01-27T14:00:14.201Z,5.80
2019-01-27T14:02:44.959Z,5.80
2019-01-27T14:05:17.076Z,5.80
2019-01-27T14:07:46.432Z,5.80
2019-01-27T14:10:29.001Z,5.80
2019-01-27T14:12:58.632Z,5.80
2019-01-27T14:15:30.121Z,5.80
2019-01-27T14:17:59.306Z,5.80
2019-01-27T14:20:28.583Z,5.80
2019-01-27T14:22:57.981Z,5.80
2019-01-27T14:25:28.254Z,5.80
2019-01-27T14:27:58.725Z,5.80
2019-01-27T14:30:31.647Z,5.80
2019-01-27T14:33:01.116Z,5.80
2019-01-27T14:35:30.301Z,5.70
2019-01-27T14:37:59.956Z,5.70
2019-01-27T14:40:29.765Z,5.70
2019-01-27T14:43:00.712Z,5.70
2019-01-27T14:45:32.443Z,5.60
2019-01-27T14:48:01.989Z,5.60
2019-01-27T14:50:53.731Z,5.60
2019-01-27T14:53:23.054Z,5.60
2019-01-27T14:55:55.971Z,5.60
2019-01-27T16:23:27.535Z,4.70
2019-01-27T16:26:22.471Z,4.70
2019-01-27T16:34:48.547Z,4.60
2019-01-27T16:44:53.951Z,4.40
2019-01-27T16:57:16.323Z,4.00
2019-01-27T17:17:23.560Z,3.90
2019-01-27T17:20:47.096Z,3.80
2019-01-27T17:23:23.336Z,3.80
2019-01-27T17:25:53.809Z,3.80
2019-01-27T17:28:51.947Z,3.80
2019-01-27T17:31:37.160Z,3.80
2019-01-27T17:37:22.752Z,3.80
2019-01-27T17:40:15.445Z,3.80
2019-01-27T17:42:45.321Z,3.80
2019-01-27T17:45:23.187Z,3.80
2019-01-27T17:48:02.198Z,3.80
2019-01-27T17:50:31.559Z,3.80
2019-01-27T17:53:03.383Z,3.80
2019-01-27T17:55:39.121Z,3.80
2019-01-27T17:58:33.125Z,3.80
2019-01-27T18:01:24.451Z,3.80
2019-01-27T18:04:00.130Z,3.80
2019-01-27T18:06:51.417Z,3.80
2019-01-27T18:09:27.108Z,3.80
2019-01-27T18:12:02.159Z,3.80
2019-01-27T18:14:34.888Z,3.80
2019-01-27T18:17:04.200Z,3.80
2019-01-27T18:19:33.551Z,3.80
2019-01-27T18:22:03.280Z,3.80
2019-01-27T18:24:32.951Z,3.80
2019-01-27T18:27:05.803Z,3.70
2019-01-27T18:29:36.989Z,3.70
2019-01-27T18:32:07.852Z,3.70
2019-01-27T18:34:40.995Z,3.60
2019-01-27T18:37:11.022Z,3.60
2019-01-27T18:39:45.583Z,3.60
2019-01-27T18:42:14.878Z,3.60
2019-01-27T18:44:44.246Z,3.60
2019-01-27T18:47:14.660Z,3.50
2019-01-27T18:49:44.078Z,3.50
2019-01-27T18:52:13.670Z,3.50
2019-01-27T18:54:58.717Z,3.50
2019-01-27T18:57:42.056Z,3.50
2019-01-27T19:00:34.077Z,3.50
2019-01-27T19:03:20.643Z,3.50
2019-01-27T19:06:06.493Z,3.50
2019-01-27T19:12:00.742Z,3.40
2019-01-27T19:14:50.953Z,3.40
2019-01-27T19:17:41.602Z,3.40
2019-01-27T19:21:17.233Z,3.40
2019-01-27T19:23:44.770Z,3.40
2019-01-27T19:26:34.764Z,3.40
2019-01-27T19:29:35.596Z,3.40
2019-01-27T19:32:38.937Z,3.30
2019-01-27T19:35:45.158Z,3.30
2019-01-27T19:39:05.807Z,3.30
2019-01-27T19:42:11.798Z,3.20
2019-01-27T19:45:10.331Z,3.20
2019-01-27T19:48:14.784Z,3.20
2019-01-27T19:58:19.924Z,3.20
2019-01-27T20:01:14.393Z,3.20
2019-01-27T20:04:08.629Z,3.20
2019-01-27T20:07:01.736Z,3.20
2019-01-27T20:09:54.477Z,3.20
2019-01-27T20:12:43.358Z,3.20
2019-01-27T20:15:26.784Z,3.20
2019-01-27T20:18:13.268Z,3.20
2019-01-27T20:20:57.324Z,3.20
2019-01-27T20:23:44.496Z,3.20
2019-01-27T20:26:39.242Z,3.20
2019-01-27T20:30:17.878Z,3.20
2019-01-27T20:32:50.250Z,3.20
2019-01-27T20:35:50.091Z,3.20
2019-01-27T20:38:25.309Z,3.20
2019-01-27T20:41:09.798Z,3.20
2019-01-27T20:43:47.587Z,3.30
2019-01-27T20:46:32.330Z,3.30
2019-01-27T20:49:23.614Z,3.20
2019-01-27T20:52:07.772Z,3.20
2019-01-27T20:54:56.448Z,3.20
2019-01-27T20:57:33.024Z,3.20
2019-01-27T21:00:43.313Z,3.20
2019-01-27T21:03:19.615Z,3.20
2019-01-27T21:06:02.602Z,3.10
2019-01-27T21:08:43.880Z,3.10
2019-01-27T21:11:32.814Z,3.10
2019-01-27T21:14:17.619Z,3.10
2019-01-27T21:16:55.511Z,3.10
2019-01-27T21:19:29.883Z,3.10
2019-01-27T21:21:59.463Z,3.10
2019-01-27T21:24:31.168Z,3.10
2019-01-27T21:27:06.310Z,3.10
2019-01-27T21:29:32.178Z,3.10
2019-01-27T21:32:02.058Z,3.00
2019-01-27T21:34:31.526Z,3.00
2019-01-27T21:37:01.137Z,3.00
2019-01-27T21:39:32.600Z,3.00
2019-01-27T21:42:01.971Z,3.00
2019-01-27T21:44:35.023Z,3.00
2019-01-27T21:47:04.199Z,3.00
2019-01-27T21:49:35.166Z,3.00
2019-01-27T21:52:04.710Z,3.00
2019-01-27T21:54:37.010Z,3.00
2019-01-27T21:57:06.534Z,2.90
2019-01-27T21:59:35.881Z,2.90
2019-01-27T22:02:05.089Z,2.90
2019-01-27T22:04:34.515Z,2.90
2019-01-27T22:07:10.749Z,2.90
2019-01-27T22:09:39.976Z,2.90
2019-01-27T22:12:09.451Z,2.90
2019-01-27T22:14:38.956Z,2.90
2019-01-27T22:17:08.365Z,2.90
2019-01-27T22:19:37.675Z,2.90
2019-01-27T22:22:07.967Z,2.80
2019-01-27T22:24:37.374Z,2.80
2019-01-27T22:27:06.680Z,2.80
2019-01-27T22:29:36.105Z,2.80
2019-01-27T22:32:05.475Z,2.70
2019-01-27T22:34:34.814Z,2.70
2019-01-27T22:37:04.037Z,2.70
2019-01-27T22:39:33.575Z,2.70
2019-01-27T22:42:03.206Z,2.70
2019-01-27T22:44:32.599Z,2.70
2019-01-27T22:47:05.075Z,2.60
2019-01-27T22:49:34.835Z,2.60
2019-01-27T22:52:04.469Z,2.70
2019-01-27T22:54:35.730Z,2.70
2019-01-27T22:57:04.992Z,2.70
2019-01-27T22:59:34.252Z,2.60
2019-01-27T23:02:03.463Z,2.70
2019-01-27T23:04:33.082Z,2.60
2019-01-27T23:07:02.358Z,2.60
2019-01-27T23:09:31.759Z,2.60
2019-01-27T23:12:01.122Z,2.60
2019-01-27T23:14:30.775Z,2.60
2019-01-27T23:17:03.217Z,2.60
2019-01-27T23:19:34.518Z,2.60
2019-01-27T23:22:12.645Z,2.60
2019-01-27T23:24:42.391Z,2.70
2019-01-27T23:27:11.653Z,2.70
2019-01-27T23:29:40.907Z,2.70
2019-01-27T23:32:10.538Z,2.70
2019-01-27T23:34:39.792Z,2.70
2019-01-27T23:37:09.128Z,2.70
2019-01-27T23:39:38.667Z,2.70
2019-01-27T23:42:07.856Z,2.60
2019-01-27T23:44:37.211Z,2.70
2019-01-27T23:47:06.786Z,2.70
2019-01-27T23:49:35.968Z,2.70
2019-01-27T23:52:05.522Z,2.70
2019-01-27T23:54:34.699Z,2.70
2019-01-27T23:57:04.258Z,2.70
2019-01-27T23:59:34.007Z,2.70
